contacte
inicio
- ACTUALIZADO a las 14:15
Cámara en vivo
A 5 metros de altura
Dirección Noreste
Datos del día de Hoy
Parameter                   Max   Max Time        Min   Min Time    Average
Wind Direction              360       8:32          5       8:34         68
Wind Speed                   26      11:52          0       0:00          1
Wind Gust                    27      11:52          0       0:00          8
In Humidity                  42       4:35         39       0:32         41
Humidity                     68       5:32         34      13:28         53
In Temp                    26.6      12:27       24.7       8:13       25.7
Out Temp                   29.3      13:59       15.8       7:08       20.8
Raw Barometer           1016.76       9:53    1014.73       3:03    1015.61
Total Rain               289.60       0:00     289.60       0:00     289.60




26/5/24
Time         Wind Dir   Wind Spd  Wind Gust     Hum In   Humidity    Temp In       Temp  Raw Barom   Tot Rain
                    °      km/hr      km/hr          %          %         °C         °C         mb         mm
0:00              260          0         11         40         47       26.4       21.6    1015.04     289.60
0:20              259          0          6         40         49       26.4       20.6    1015.17     289.60
0:40              259          0          0         39         48       26.4       20.3    1015.17     289.60
1:00              259          0          0         39         48       26.3       20.3    1015.04     289.60
1:20              259          0          0         40         50       26.3       20.1    1015.04     289.60
1:40              259          0          0         39         53       26.2       19.5    1014.94     289.60
2:00              259          0          3         40         55       26.1       18.8    1014.90     289.60
2:20              259          0          2         40         54       26.0       18.4    1014.80     289.60
2:40              259          0          0         40         56       25.9       18.2    1014.83     289.60
3:00              259          0          2         40         57       25.9       17.8    1014.77     289.60
3:20              259          0          0         40         58       25.8       17.7    1014.80     289.60
3:40              259          0          0         41         62       25.7       17.6    1014.90     289.60
4:00              259          0          2         41         63       25.7       17.4    1015.11     289.60
4:20              259          0          2         41         65       25.6       17.2    1015.38     289.60
4:40              259          0          0         42         66       25.6       17.1    1015.31     289.60
5:00              271          3         10         42         65       25.4       16.9    1015.14     289.60
5:20              279          0          6         42         67       25.3       16.3    1015.07     289.60
5:40              279          0          3         42         68       25.3       16.3    1014.97     289.60
6:00              279          6         10         42         67       25.1       16.4    1014.90     289.60
6:20              280          2          6         42         68       25.1       16.0    1015.07     289.60
6:40              280          0          2         42         68       25.0       16.1    1015.21     289.60
7:00              280          0          2         42         67       24.9       15.9    1015.41     289.60
7:20              280          0          3         42         67       24.9       15.8    1015.58     289.60
7:40              280          0          3         42         63       24.8       16.3    1015.58     289.60
8:00              280          0          3         42         62       24.7       17.3    1015.78     289.60
8:20              348          0         10         42         60       24.7       17.9    1015.71     289.60
8:40               12          2         11         42         55       24.8       19.2    1015.98     289.60
9:00               44          6         16         42         53       24.9       20.3    1016.22     289.60
9:20               42          0         10         42         51       25.1       21.4    1016.49     289.60
9:40               81          0          5         42         52       25.3       22.2    1016.63     289.60
10:00              82          0          5         42         50       25.5       22.7    1016.69     289.60
10:20              77          0          5         42         47       25.7       23.4    1016.69     289.60
10:40              52          0         10         42         44       25.9       24.4    1016.49     289.60
11:00              63          0         10         42         44       26.1       25.2    1016.42     289.60
11:20              91          3         16         41         42       26.2       25.7    1016.32     289.60
11:40              90         10         16         41         42       26.3       26.1    1016.42     289.60
12:00              59          5         26         41         40       26.4       26.6    1016.46     289.60
12:20             124          0         14         41         38       26.5       26.9    1016.42     289.60
12:40              24          2         14         40         37       26.5       27.4    1016.42     289.60
13:00              84          0         14         40         37       26.6       28.2    1016.32     289.60
13:20              63          0         11         40         35       26.5       28.8    1016.09     289.60
13:40             280         10         19         40         35       26.5       28.6    1015.88     289.60
14:00              82          0         19         40         34       26.4       29.3    1015.71     289.60
Miembro de: